Time;durP1;ratioP1;P1;durP2;ratioP2;P2;SDS_P1;SDS_P2;PMS_P1;PMS_P2;Temp;Humidity;BMP_temperature;BMP_pressure;BME280_temperature;BME280_humidity;BME280_pressure;Samples;Min_cycle;Max_cycle;Signal;HPM_P1;HPM_P2
2023/05/31 00:02:48;;;;;;;10.70;5.70;;;;;;;9.38;59.04;101046.66;130323;1255;114736;-69
2023/05/31 00:05:51;;;;;;;17.00;5.70;;;;;;;9.33;59.04;101047.86;130178;1255;114896;-70
2023/05/31 00:08:53;;;;;;;11.70;6.20;;;;;;;9.29;59.23;101046.73;130370;1258;115041;-68
2023/05/31 00:11:55;;;;;;;12.50;5.60;;;;;;;9.25;59.52;101046.88;130100;1258;129110;-69
2023/05/31 00:14:58;;;;;;;11.00;5.80;;;;;;;9.22;59.40;101046.80;130123;1258;114828;-68
2023/05/31 00:18:00;;;;;;;12.80;5.40;;;;;;;9.17;59.60;101051.58;130197;1273;114767;-69
2023/05/31 00:21:02;;;;;;;11.70;4.70;;;;;;;9.14;60.06;101051.86;130250;1258;114678;-69
2023/05/31 00:24:05;;;;;;;10.70;5.60;;;;;;;9.10;59.86;101054.11;130027;1256;114697;-67
2023/05/31 00:27:07;;;;;;;17.10;7.00;;;;;;;9.06;59.63;101053.34;130093;1260;114724;-69
2023/05/31 00:30:10;;;;;;;11.90;6.40;;;;;;;9.04;60.12;101053.98;130037;1254;114816;-68
2023/05/31 00:33:12;;;;;;;12.70;7.40;;;;;;;9.00;60.34;101055.52;130170;1254;114691;-68
2023/05/31 00:36:15;;;;;;;11.90;6.40;;;;;;;8.97;60.46;101053.64;130203;1258;115155;-68
2023/05/31 00:39:18;;;;;;;9.70;5.30;;;;;;;8.93;60.54;101059.27;130164;1258;114677;-68
2023/05/31 00:42:20;;;;;;;11.80;5.40;;;;;;;8.91;60.70;101059.35;130284;1258;114692;-68
2023/05/31 00:45:22;;;;;;;8.30;4.90;;;;;;;8.88;61.04;101055.52;130125;1277;114821;-68
2023/05/31 00:48:24;;;;;;;9.20;5.70;;;;;;;8.85;60.95;101056.13;130260;1258;114771;-68
2023/05/31 00:51:28;;;;;;;6.90;4.70;;;;;;;8.83;61.09;101051.92;129970;1264;129147;-69
2023/05/31 00:54:30;;;;;;;8.80;4.60;;;;;;;8.80;61.24;101051.30;130230;1258;114888;-69
2023/05/31 00:57:32;;;;;;;7.90;4.60;;;;;;;8.77;61.55;101047.09;130216;1270;114617;-69
2023/05/31 01:00:34;;;;;;;12.10;5.70;;;;;;;8.76;61.52;101051.05;130150;1258;115430;-68
2023/05/31 01:03:37;;;;;;;12.90;5.40;;;;;;;8.74;61.86;101050.58;130092;1263;114717;-69
2023/05/31 01:06:39;;;;;;;12.40;6.40;;;;;;;8.72;62.21;101051.70;129975;1261;114729;-68
2023/05/31 01:09:42;;;;;;;9.50;6.00;;;;;;;8.69;61.91;101050.90;130089;1254;114701;-68
2023/05/31 01:13:10;;;;;;;13.50;5.90;;;;;;;8.68;62.47;101050.77;130230;1254;115389;-68
2023/05/31 01:16:39;;;;;;;14.10;5.80;;;;;;;8.69;62.75;101055.71;130120;1268;114732;-68
2023/05/31 01:19:52;;;;;;;10.00;5.30;;;;;;;8.69;63.04;101059.09;130268;1258;114762;-68
2023/05/31 01:23:22;;;;;;;12.10;5.00;;;;;;;8.69;63.09;101057.67;130205;1271;114977;-68
2023/05/31 01:26:37;;;;;;;10.60;5.10;;;;;;;8.67;63.33;101061.30;130036;1261;129264;-68
2023/05/31 01:29:41;;;;;;;8.90;5.40;;;;;;;8.65;63.46;101060.64;130048;1278;114675;-67
2023/05/31 01:32:45;;;;;;;10.40;4.80;;;;;;;8.63;63.41;101056.96;129955;1255;114696;-68
2023/05/31 01:35:48;;;;;;;8.80;4.70;;;;;;;8.60;63.39;101057.41;130133;1262;114636;-67
2023/05/31 01:38:51;;;;;;;10.60;5.10;;;;;;;8.58;63.42;101058.70;130088;1276;114629;-67
2023/05/31 01:41:57;;;;;;;10.00;5.60;;;;;;;8.55;63.66;101059.67;130125;1255;127812;-67
2023/05/31 01:45:00;;;;;;;7.80;4.80;;;;;;;8.52;63.85;101058.86;129869;1261;114616;-67
2023/05/31 01:48:06;;;;;;;8.50;4.50;;;;;;;8.50;63.67;101061.61;130126;1256;114724;-67
2023/05/31 01:51:11;;;;;;;9.50;4.40;;;;;;;8.47;64.08;101062.02;129868;1255;114899;-69
2023/05/31 01:54:14;;;;;;;9.20;4.80;;;;;;;8.45;63.95;101065.45;130216;1256;114723;-67
2023/05/31 01:57:17;;;;;;;13.50;5.50;;;;;;;8.44;64.48;101065.67;130312;1258;115132;-67
2023/05/31 02:00:20;;;;;;;8.30;4.50;;;;;;;8.45;64.48;101067.42;130140;1257;114740;-68
2023/05/31 02:03:23;;;;;;;9.60;4.40;;;;;;;8.47;64.34;101070.73;130190;1270;114692;-68
2023/05/31 02:06:28;;;;;;;11.90;4.90;;;;;;;8.47;64.13;101070.56;130132;1262;114838;-68
2023/05/31 02:09:32;;;;;;;10.40;4.30;;;;;;;8.46;64.12;101070.77;130175;1256;114701;-67
2023/05/31 02:12:35;;;;;;;10.80;5.00;;;;;;;8.46;64.49;101068.98;129923;1256;127836;-68
2023/05/31 02:15:41;;;;;;;9.10;4.40;;;;;;;8.45;64.25;101069.89;130021;1258;115159;-67
2023/05/31 02:18:44;;;;;;;8.20;4.60;;;;;;;8.45;64.41;101075.58;130221;1258;114778;-67
2023/05/31 02:21:47;;;;;;;7.30;4.60;;;;;;;8.44;64.48;101075.12;128109;1258;2546382;-67
2023/05/31 02:24:49;;;;;;;8.20;4.40;;;;;;;8.43;64.76;101079.41;130055;1258;114773;-67
2023/05/31 02:27:51;;;;;;;9.40;4.50;;;;;;;8.41;64.62;101079.27;130039;1256;114809;-67
2023/05/31 02:30:58;;;;;;;7.90;4.70;;;;;;;8.42;64.88;101075.16;129783;1255;128116;-67
2023/05/31 02:34:00;;;;;;;6.90;4.10;;;;;;;8.42;65.01;101076.39;129878;1261;115179;-67
2023/05/31 02:37:03;;;;;;;12.40;5.10;;;;;;;8.42;64.69;101079.95;129960;1261;114816;-68
2023/05/31 02:40:10;;;;;;;10.80;4.40;;;;;;;8.41;64.89;101081.77;129965;1256;116481;-67
2023/05/31 02:43:12;;;;;;;10.90;4.50;;;;;;;8.41;65.09;101083.55;129916;1277;114986;-67
2023/05/31 02:46:14;;;;;;;8.40;4.40;;;;;;;8.40;65.15;101082.69;130313;1256;114710;-67
2023/05/31 02:49:16;;;;;;;9.70;4.80;;;;;;;8.40;65.24;101081.09;130129;1258;114751;-67
2023/05/31 02:52:19;;;;;;;11.40;4.70;;;;;;;8.40;65.26;101082.15;130112;1258;115220;-67
2023/05/31 02:55:21;;;;;;;7.60;4.10;;;;;;;8.41;65.25;101084.44;130150;1258;114806;-67
2023/05/31 02:58:24;;;;;;;12.00;5.20;;;;;;;8.42;65.37;101082.29;130077;1256;115133;-68
2023/05/31 03:01:26;;;;;;;11.40;5.20;;;;;;;8.43;65.15;101077.81;130151;1258;114711;-66
2023/05/31 03:04:30;;;;;;;8.70;4.70;;;;;;;8.44;65.42;101077.39;130240;1258;115386;-67
2023/05/31 03:07:33;;;;;;;6.90;3.90;;;;;;;8.46;65.18;101080.02;130114;1261;128757;-67
2023/05/31 03:10:35;;;;;;;10.60;4.30;;;;;;;8.48;65.48;101082.12;130089;1270;114730;-67
2023/05/31 03:13:37;;;;;;;9.90;4.30;;;;;;;8.51;65.62;101081.69;129973;1259;114662;-67
2023/05/31 03:16:39;;;;;;;11.70;4.50;;;;;;;8.54;65.44;101082.68;130009;1261;114696;-67
2023/05/31 03:19:42;;;;;;;8.60;4.00;;;;;;;8.58;65.71;101084.17;130218;1260;114736;-67
2023/05/31 03:22:45;;;;;;;8.20;4.70;;;;;;;8.61;65.68;101081.22;129941;1271;114974;-67
2023/05/31 03:25:50;;;;;;;9.90;4.40;;;;;;;8.65;65.41;101079.86;129967;1256;115410;-67
2023/05/31 03:28:53;;;;;;;8.50;4.30;;;;;;;8.71;65.74;101080.97;130013;1278;115311;-67
2023/05/31 03:31:55;;;;;;;11.50;4.80;;;;;;;8.77;66.05;101079.54;130181;1256;114783;-67
2023/05/31 03:34:59;;;;;;;6.30;4.70;;;;;;;8.83;65.72;101079.17;130020;1260;115136;-67
2023/05/31 03:38:02;;;;;;;9.00;4.60;;;;;;;8.89;65.98;101082.55;129998;1256;114713;-67
2023/05/31 03:41:05;;;;;;;6.30;4.30;;;;;;;8.95;65.80;101078.63;130217;1256;114714;-67
2023/05/31 03:44:07;;;;;;;11.10;4.60;;;;;;;9.03;66.26;101084.80;129966;1261;114743;-67
2023/05/31 03:47:11;;;;;;;11.50;5.40;;;;;;;9.11;66.20;101084.92;130208;1257;116366;-67
2023/05/31 03:50:13;;;;;;;9.20;4.60;;;;;;;9.19;66.29;101083.44;129878;1256;114894;-67
2023/05/31 03:53:16;;;;;;;12.50;4.60;;;;;;;9.28;66.16;101083.15;130087;1261;114682;-67
2023/05/31 03:56:20;;;;;;;9.90;4.70;;;;;;;9.38;66.35;101083.73;129913;1256;115329;-67
2023/05/31 03:59:23;;;;;;;8.90;5.10;;;;;;;9.48;66.34;101081.80;130034;1260;128924;-67
2023/05/31 04:02:25;;;;;;;9.40;4.90;;;;;;;9.59;66.48;101086.96;130024;1261;115431;-67
2023/05/31 04:05:27;;;;;;;11.20;5.50;;;;;;;9.72;66.50;101084.95;129994;1256;115484;-67
2023/05/31 04:08:30;;;;;;;8.80;5.10;;;;;;;9.85;66.49;101084.33;130022;1256;114765;-67
2023/05/31 04:11:32;;;;;;;10.50;4.90;;;;;;;9.98;66.47;101087.27;130027;1261;114808;-66
2023/05/31 04:14:34;;;;;;;11.60;6.30;;;;;;;10.12;66.51;101092.15;130158;1262;115091;-67
2023/05/31 04:17:36;;;;;;;15.60;5.70;;;;;;;10.27;66.17;101088.42;129979;1261;114778;-67
2023/05/31 04:20:39;;;;;;;14.30;7.30;;;;;;;10.44;65.89;101090.52;130016;1262;114805;-67
2023/05/31 04:23:41;;;;;;;11.40;6.10;;;;;;;10.62;65.62;101090.05;129938;1260;114806;-67
2023/05/31 04:26:45;;;;;;;14.20;6.70;;;;;;;10.82;65.40;101086.98;130269;1261;114786;-67
2023/05/31 04:29:50;;;;;;;12.00;6.40;;;;;;;11.03;65.12;101088.66;130097;1259;114741;-67
2023/05/31 04:32:57;;;;;;;12.30;6.00;;;;;;;11.25;64.80;101088.54;130022;1278;115235;-67
2023/05/31 04:36:00;;;;;;;11.50;6.00;;;;;;;11.50;64.84;101082.54;129655;1256;114789;-68
2023/05/31 04:39:05;;;;;;;18.20;6.60;;;;;;;12.13;64.60;101083.83;129915;1261;128867;-67
2023/05/31 04:42:11;;;;;;;;;;;;;;;13.31;64.20;101077.23;129865;1256;114756;-67
2023/05/31 04:45:15;;;;;;;14.70;6.20;;;;;;;14.66;62.65;101074.16;130151;1266;114780;-67
2023/05/31 04:48:17;;;;;;;12.70;5.20;;;;;;;16.13;62.22;101070.48;130362;1258;114907;-66
2023/05/31 04:51:20;;;;;;;11.00;5.70;;;;;;;17.49;59.97;101067.94;130123;1265;115306;-67
2023/05/31 04:54:23;;;;;;;9.40;4.80;;;;;;;18.65;57.85;101067.66;130012;1258;114785;-67
2023/05/31 04:57:26;;;;;;;12.50;6.00;;;;;;;19.56;55.36;101072.33;130181;1256;114772;-66
2023/05/31 05:00:29;;;;;;;12.40;5.60;;;;;;;20.48;54.82;101071.45;129961;1261;115179;-68
2023/05/31 05:03:31;;;;;;;17.40;5.80;;;;;;;21.59;53.77;101067.23;129982;1261;114905;-67
2023/05/31 05:06:37;;;;;;;12.60;5.00;;;;;;;22.65;51.86;101066.56;129835;1259;114883;-67
2023/05/31 05:09:39;;;;;;;9.90;4.80;;;;;;;23.67;50.58;101064.91;129772;1265;114909;-66
2023/05/31 05:12:42;;;;;;;10.30;4.70;;;;;;;24.69;48.49;101068.29;129707;1262;114904;-67
2023/05/31 05:15:44;;;;;;;7.30;4.20;;;;;;;25.43;46.73;101066.16;129820;1259;115690;-67
2023/05/31 05:18:46;;;;;;;11.90;5.50;;;;;;;26.09;45.28;101067.55;129601;1268;115248;-66
2023/05/31 05:21:48;;;;;;;8.60;4.60;;;;;;;26.68;43.23;101063.95;130001;1261;114733;-66
2023/05/31 05:24:50;;;;;;;10.40;4.80;;;;;;;27.10;42.73;101058.17;130271;1261;114720;-68
2023/05/31 05:27:52;;;;;;;8.50;4.40;;;;;;;27.72;41.76;101056.45;130253;1272;114747;-68
2023/05/31 05:30:55;;;;;;;5.80;3.90;;;;;;;28.28;40.59;101055.02;130375;1261;115123;-66
2023/05/31 05:33:57;;;;;;;6.40;4.40;;;;;;;28.80;39.60;101057.84;130255;1256;114714;-68
2023/05/31 05:37:00;;;;;;;5.50;4.20;;;;;;;29.33;38.40;101057.58;130277;1278;114714;-69
2023/05/31 05:40:02;;;;;;;10.60;4.70;;;;;;;29.51;36.50;101056.92;130055;1264;115170;-69
2023/05/31 05:43:05;;;;;;;9.60;4.30;;;;;;;29.59;35.58;101053.50;130281;1270;115152;-70
2023/05/31 05:46:07;;;;;;;14.70;4.80;;;;;;;29.74;35.22;101056.84;130347;1256;114831;-68
2023/05/31 05:49:10;;;;;;;12.90;4.90;;;;;;;29.84;34.44;101053.80;130130;1277;114726;-67
2023/05/31 05:52:12;;;;;;;13.10;4.90;;;;;;;30.03;33.95;101054.45;129943;1263;114714;-66
2023/05/31 05:55:14;;;;;;;7.80;4.50;;;;;;;30.06;33.13;101055.81;130127;1258;114713;-66
2023/05/31 05:58:16;;;;;;;21.40;4.90;;;;;;;30.09;32.50;101055.44;130145;1254;114734;-66
2023/05/31 06:01:19;;;;;;;12.10;5.10;;;;;;;30.13;32.26;101058.58;130005;1259;115238;-66
2023/05/31 06:04:21;;;;;;;13.20;4.80;;;;;;;30.32;31.81;101060.02;130046;1277;115222;-66
2023/05/31 06:07:23;;;;;;;8.10;4.50;;;;;;;30.58;31.70;101062.44;130160;1277;115396;-66
2023/05/31 06:10:25;;;;;;;12.00;3.90;;;;;;;30.77;31.09;101062.08;130154;1261;114686;-66
2023/05/31 06:13:27;;;;;;;17.40;5.10;;;;;;;30.90;30.81;101062.16;130283;1260;114854;-68
2023/05/31 06:16:29;;;;;;;9.60;4.00;;;;;;;30.98;30.21;101061.92;130119;1255;114794;-68
2023/05/31 06:19:31;;;;;;;7.90;3.80;;;;;;;31.04;30.15;101060.94;129782;1272;119119;-68
2023/05/31 06:22:33;;;;;;;10.60;4.10;;;;;;;31.22;29.77;101058.68;129969;1278;114733;-67
2023/05/31 06:25:36;;;;;;;12.90;4.20;;;;;;;31.36;29.43;101055.30;130341;1260;114726;-67
2023/05/31 06:28:38;;;;;;;12.40;4.20;;;;;;;31.45;29.41;101055.11;130201;1260;114736;-69
2023/05/31 06:31:40;;;;;;;7.10;3.90;;;;;;;31.51;29.09;101058.02;130336;1259;114717;-63
2023/05/31 06:34:42;;;;;;;5.30;3.30;;;;;;;31.39;28.88;101055.43;129867;1256;114805;-63
2023/05/31 06:37:46;;;;;;;12.40;4.10;;;;;;;31.23;28.83;101057.29;129618;1262;114729;-63
2023/05/31 06:40:48;;;;;;;9.00;3.90;;;;;;;31.10;28.52;101056.17;129772;1270;120365;-63
2023/05/31 06:43:50;;;;;;;10.90;4.10;;;;;;;31.02;28.22;101053.68;129689;1259;114747;-63
2023/05/31 06:46:53;;;;;;;8.20;3.70;;;;;;;31.03;28.31;101059.78;129769;1277;114776;-63
2023/05/31 06:49:55;;;;;;;10.60;3.70;;;;;;;30.97;27.78;101055.49;129874;1275;114785;-63
2023/05/31 06:52:57;;;;;;;7.50;3.60;;;;;;;30.97;27.96;101052.94;129515;1277;114762;-62
2023/05/31 06:55:59;;;;;;;6.30;3.10;;;;;;;31.18;27.75;101051.05;129899;1277;114793;-63
2023/05/31 06:59:01;;;;;;;6.30;3.30;;;;;;;31.45;27.76;101044.34;130136;1254;115091;-62
2023/05/31 07:02:04;;;;;;;6.30;3.60;;;;;;;31.62;27.38;101045.88;129727;1262;121114;-63
2023/05/31 07:05:06;;;;;;;6.70;3.10;;;;;;;31.75;27.20;101045.07;129862;1260;114771;-63
2023/05/31 07:08:09;;;;;;;8.20;3.20;;;;;;;32.05;27.00;101041.17;129811;1258;115335;-62
2023/05/31 07:11:12;;;;;;;9.10;2.90;;;;;;;32.26;26.91;101041.14;130033;1258;115134;-62
2023/05/31 07:14:15;;;;;;;5.80;3.40;;;;;;;32.54;26.42;101037.89;129779;1274;115198;-62
2023/05/31 07:17:17;;;;;;;12.60;3.70;;;;;;;32.69;26.30;101035.53;129696;1274;114706;-62
2023/05/31 07:20:19;;;;;;;5.90;3.00;;;;;;;32.86;26.17;101037.09;129653;1256;114725;-62
2023/05/31 07:23:21;;;;;;;8.90;3.10;;;;;;;33.13;26.22;101036.79;129718;1278;114803;-62
2023/05/31 07:26:24;;;;;;;5.30;2.70;;;;;;;33.44;25.99;101035.58;129462;1261;114756;-62
2023/05/31 07:29:26;;;;;;;8.40;3.30;;;;;;;33.59;25.35;101032.18;129779;1259;114786;-61
2023/05/31 07:32:28;;;;;;;4.80;3.00;;;;;;;33.78;25.21;101030.28;129724;1261;114712;-62
2023/05/31 07:35:30;;;;;;;5.90;3.10;;;;;;;33.88;24.66;101030.29;129632;1275;115133;-63
2023/05/31 07:38:32;;;;;;;9.80;3.60;;;;;;;33.87;24.39;101026.55;129722;1259;115216;-63
2023/05/31 07:41:35;;;;;;;12.30;3.10;;;;;;;33.97;24.66;101024.36;129799;1271;114747;-63
2023/05/31 07:44:37;;;;;;;3.90;2.50;;;;;;;34.18;24.43;101024.21;130074;1277;114767;-63
2023/05/31 07:47:40;;;;;;;4.20;2.60;;;;;;;34.39;24.51;101024.04;129822;1277;114724;-63
2023/05/31 07:50:42;;;;;;;6.70;2.50;;;;;;;34.41;23.97;101020.22;129754;1275;114735;-62
2023/05/31 07:53:44;;;;;;;5.10;2.70;;;;;;;34.25;23.70;101021.48;129866;1277;115403;-62
2023/05/31 07:56:46;;;;;;;8.70;3.10;;;;;;;34.31;23.68;101018.59;129855;1260;115104;-63
2023/05/31 07:59:50;;;;;;;7.00;3.00;;;;;;;34.27;23.23;101014.80;129576;1271;114706;-63
2023/05/31 08:02:52;;;;;;;16.70;3.40;;;;;;;34.19;23.27;101013.83;129464;1272;119226;-63
2023/05/31 08:05:55;;;;;;;3.90;3.00;;;;;;;34.35;23.66;101010.85;129617;1268;115271;-63
2023/05/31 08:08:58;;;;;;;4.50;3.20;;;;;;;34.43;23.61;101005.29;129704;1270;114748;-64
2023/05/31 08:12:02;;;;;;;8.20;3.00;;;;;;;34.44;23.23;101003.86;129832;1259;114714;-62
2023/05/31 08:15:05;;;;;;;4.90;2.70;;;;;;;34.33;23.08;101003.52;129580;1258;114932;-61
2023/05/31 08:18:07;;;;;;;6.60;2.90;;;;;;;34.22;23.13;101009.17;129752;1277;115194;-60
2023/05/31 08:21:10;;;;;;;6.00;2.60;;;;;;;34.25;23.07;101006.10;129735;1273;114709;-61
2023/05/31 08:24:13;;;;;;;5.80;2.90;;;;;;;34.28;22.98;101003.10;129855;1267;114839;-61
2023/05/31 08:27:17;;;;;;;8.70;2.70;;;;;;;34.35;23.21;101001.82;129910;1260;114807;-61
2023/05/31 08:30:19;;;;;;;4.70;2.70;;;;;;;34.44;23.10;101000.32;129729;1272;114768;-61
2023/05/31 08:33:22;;;;;;;4.70;2.80;;;;;;;34.44;22.99;101000.23;129819;1277;114809;-60
2023/05/31 08:36:25;;;;;;;7.20;3.30;;;;;;;34.33;22.60;100995.77;129766;1270;115175;-60
2023/05/31 08:39:27;;;;;;;10.30;3.20;;;;;;;33.88;21.92;101001.46;129834;1274;115318;-61
2023/05/31 08:42:43;;;;;;;6.30;2.60;;;;;;;33.37;22.07;101003.79;129598;1261;119603;-60
2023/05/31 08:45:45;;;;;;;6.00;2.90;;;;;;;32.87;22.21;101002.67;129744;1260;114849;-61
2023/05/31 08:48:53;;;;;;;7.10;2.50;;;;;;;32.65;22.43;101003.16;129835;1258;115372;-61
2023/05/31 08:51:55;;;;;;;4.70;2.70;;;;;;;32.52;22.52;100997.45;129733;1261;114798;-60
2023/05/31 08:55:01;;;;;;;3.50;2.20;;;;;;;32.43;22.51;100996.08;129724;1277;114855;-61
2023/05/31 08:58:04;;;;;;;6.40;3.00;;;;;;;32.09;22.17;100997.71;129459;1265;119777;-61
2023/05/31 09:01:06;;;;;;;4.30;2.10;;;;;;;31.77;22.40;101003.38;129777;1260;114796;-62
2023/05/31 09:04:09;;;;;;;3.80;2.00;;;;;;;31.51;22.19;101001.84;129767;1273;114908;-61
2023/05/31 09:07:11;;;;;;;5.30;2.00;;;;;;;31.21;22.34;100997.73;129901;1274;115418;-63
2023/05/31 09:10:15;;;;;;;3.60;2.00;;;;;;;30.94;22.41;100996.83;129752;1277;114744;-61
2023/05/31 09:13:18;;;;;;;5.90;2.20;;;;;;;30.64;22.26;100996.11;129664;1272;114784;-60
2023/05/31 09:16:24;;;;;;;5.10;2.00;;;;;;;30.16;22.19;100999.94;129631;1261;120321;-60
2023/05/31 09:19:26;;;;;;;3.80;1.80;;;;;;;29.54;22.15;100999.91;129772;1259;115234;-62
2023/05/31 09:22:28;;;;;;;6.40;2.10;;;;;;;28.97;22.72;100993.30;129652;1268;114784;-62
2023/05/31 09:25:47;;;;;;;6.00;1.80;;;;;;;28.67;23.19;100993.64;129700;1277;114761;-61
2023/05/31 09:28:51;;;;;;;3.90;1.90;;;;;;;28.49;23.35;100992.42;129563;1263;114844;-61
2023/05/31 09:32:09;;;;;;;4.40;2.20;;;;;;;28.28;23.59;100987.45;129777;1270;114764;-60
2023/05/31 09:35:16;;;;;;;3.20;1.90;;;;;;;28.14;23.89;100986.98;129768;1270;119122;-61
2023/05/31 09:38:19;;;;;;;2.10;1.60;;;;;;;28.14;24.29;100984.59;129689;1277;117019;-60
2023/05/31 09:41:21;;;;;;;5.30;1.90;;;;;;;28.06;24.14;100983.10;129645;1261;115251;-61
2023/05/31 09:44:27;;;;;;;6.80;2.30;;;;;;;27.97;24.27;100980.31;129843;1268;115303;-61
2023/05/31 09:47:30;;;;;;;3.40;1.60;;;;;;;27.91;24.49;100978.23;129426;1274;115713;-62
2023/05/31 09:50:32;;;;;;;9.70;1.90;;;;;;;27.84;24.73;100974.14;129646;1274;115149;-63
2023/05/31 09:53:43;;;;;;;5.80;1.90;;;;;;;27.65;24.35;100972.08;129785;1273;114810;-61
2023/05/31 09:56:45;;;;;;;3.90;1.80;;;;;;;27.24;24.45;100971.40;129920;1277;115245;-61
2023/05/31 09:59:57;;;;;;;3.90;2.20;;;;;;;26.93;24.78;100969.13;129937;1277;114745;-61
2023/05/31 10:03:00;;;;;;;7.10;1.60;;;;;;;26.72;25.29;100962.23;129746;1261;114988;-59
2023/05/31 10:06:03;;;;;;;3.40;1.80;;;;;;;26.45;24.87;100957.89;129923;1269;115151;-64
2023/05/31 10:09:07;;;;;;;7.00;2.20;;;;;;;26.09;25.21;100952.15;129735;1268;114754;-60
2023/05/31 10:12:10;;;;;;;4.20;2.20;;;;;;;25.91;25.82;100952.71;129829;1269;114755;-61
2023/05/31 10:15:16;;;;;;;3.60;2.20;;;;;;;25.78;26.15;100953.86;129793;1258;115355;-62
2023/05/31 10:18:20;;;;;;;5.80;1.90;;;;;;;25.60;26.30;100953.95;129896;1269;114827;-61
2023/05/31 10:21:25;;;;;;;2.60;2.00;;;;;;;25.28;26.49;100950.02;129639;1260;114716;-61
2023/05/31 10:24:37;;;;;;;3.70;1.90;;;;;;;25.10;26.93;100950.42;129781;1270;129058;-60
2023/05/31 10:27:44;;;;;;;2.80;1.80;;;;;;;24.85;26.96;100947.02;129477;1270;115260;-60
2023/05/31 10:30:48;;;;;;;4.80;1.90;;;;;;;24.68;27.18;100945.05;129629;1257;114818;-63
2023/05/31 10:33:53;;;;;;;;;;;;;;;24.66;27.72;100940.52;129610;1261;116534;-61
2023/05/31 10:36:55;;;;;;;6.10;1.80;;;;;;;24.68;27.85;100939.14;129508;1277;114888;-62
2023/05/31 10:40:01;;;;;;;3.40;1.90;;;;;;;24.68;27.89;100938.63;129789;1259;115081;-60
2023/05/31 10:43:09;;;;;;;2.20;1.50;;;;;;;24.66;28.10;100941.72;129880;1271;115163;-61
2023/05/31 10:46:16;;;;;;;3.00;1.90;;;;;;;24.69;28.14;100942.58;129810;1261;115211;-61
2023/05/31 10:49:19;;;;;;;5.50;2.10;;;;;;;24.70;28.46;100933.69;129519;1261;114837;-60
2023/05/31 10:52:23;;;;;;;7.50;1.90;;;;;;;24.74;28.71;100933.69;129500;1277;114814;-60
2023/05/31 10:55:25;;;;;;;5.30;2.30;;;;;;;24.71;28.51;100934.31;129675;1257;114736;-61
2023/05/31 10:58:39;;;;;;;3.60;1.90;;;;;;;24.58;28.13;100927.20;129765;1260;114774;-60
2023/05/31 11:01:41;;;;;;;7.70;2.40;;;;;;;24.35;28.00;100925.08;129481;1277;115379;-60
2023/05/31 11:04:46;;;;;;;7.00;2.20;;;;;;;24.25;28.79;100922.95;129525;1259;115085;-62
2023/05/31 11:07:49;;;;;;;5.30;2.00;;;;;;;24.16;28.93;100921.82;131178;1257;114687;-61
2023/05/31 11:10:52;;;;;;;5.50;2.40;;;;;;;24.01;29.22;100919.62;129962;1276;114705;-60
2023/05/31 11:14:06;;;;;;;6.10;2.50;;;;;;;23.90;29.41;100913.38;129836;1260;114821;-60
2023/05/31 11:17:13;;;;;;;4.30;2.50;;;;;;;23.86;30.13;100909.17;129870;1278;114797;-63
2023/05/31 11:20:18;;;;;;;2.60;1.90;;;;;;;23.90;29.88;100911.36;129664;1260;114716;-61
2023/05/31 11:23:31;;;;;;;3.30;2.00;;;;;;;23.87;29.92;100898.83;129706;1261;115326;-61
2023/05/31 11:26:51;;;;;;;4.80;2.30;;;;;;;23.86;29.95;100898.02;129752;1259;114659;-61
2023/05/31 11:29:53;;;;;;;5.60;2.10;;;;;;;23.85;30.04;100895.06;129600;1270;128887;-62
2023/05/31 11:32:56;;;;;;;3.70;1.90;;;;;;;23.86;30.35;100888.14;129887;1270;115232;-66
2023/05/31 11:36:02;;;;;;;4.00;2.50;;;;;;;24.00;30.99;100887.80;130131;1259;114749;-66
2023/05/31 11:39:05;;;;;;;4.50;1.90;;;;;;;24.11;30.62;100890.66;130130;1260;114642;-66
2023/05/31 11:42:07;;;;;;;5.60;2.50;;;;;;;24.16;30.42;100892.23;130238;1260;114816;-65
2023/05/31 11:45:14;;;;;;;6.20;2.20;;;;;;;24.19;29.87;100888.66;130066;1258;114716;-66
2023/05/31 11:48:38;;;;;;;3.70;2.10;;;;;;;24.13;29.89;100887.92;129889;1278;115303;-65
2023/05/31 11:51:44;;;;;;;3.20;2.40;;;;;;;24.16;30.05;100885.51;130628;1268;114825;-64
2023/05/31 11:54:48;;;;;;;5.40;2.00;;;;;;;24.16;29.88;100880.98;130499;1257;114710;-65
2023/05/31 11:57:51;;;;;;;5.50;2.30;;;;;;;24.08;29.58;100884.61;130470;1261;114733;-66
2023/05/31 12:00:58;;;;;;;7.70;2.20;;;;;;;23.99;29.69;100876.55;130398;1277;114737;-65
2023/05/31 12:04:01;;;;;;;4.50;2.20;;;;;;;23.97;29.76;100876.59;130381;1257;115283;-66
2023/05/31 12:07:05;;;;;;;6.00;2.10;;;;;;;23.95;29.63;100871.38;130168;1261;114792;-65
2023/05/31 12:10:08;;;;;;;5.40;2.20;;;;;;;23.93;29.70;100867.77;130198;1278;114740;-64
2023/05/31 12:13:11;;;;;;;4.40;1.90;;;;;;;23.88;29.37;100864.44;130107;1263;114882;-65
2023/05/31 12:16:13;;;;;;;3.60;2.00;;;;;;;23.73;29.34;100866.98;130261;1261;114729;-66
2023/05/31 12:19:16;;;;;;;6.30;1.70;;;;;;;23.64;29.50;100864.94;130185;1257;115368;-66
2023/05/31 12:22:18;;;;;;;4.80;2.10;;;;;;;23.60;29.50;100862.59;129827;1276;115142;-66
2023/05/31 12:25:20;;;;;;;3.60;2.00;;;;;;;23.50;29.29;100861.89;130130;1277;114814;-66
2023/05/31 12:28:22;;;;;;;3.50;1.90;;;;;;;23.47;29.73;100854.84;130187;1254;115212;-65
2023/05/31 12:31:25;;;;;;;3.90;2.00;;;;;;;23.45;29.45;100852.52;129824;1260;114795;-65
2023/05/31 12:34:28;;;;;;;5.10;2.10;;;;;;;23.43;29.68;100853.78;129780;1277;115183;-65
2023/05/31 12:37:35;;;;;;;5.80;2.10;;;;;;;23.42;29.98;100850.75;129815;1254;114668;-65
2023/05/31 12:40:38;;;;;;;4.60;2.20;;;;;;;23.43;29.74;100846.52;129775;1277;115371;-66
2023/05/31 12:43:41;;;;;;;3.40;1.70;;;;;;;23.39;29.58;100843.41;130309;1258;114768;-66
2023/05/31 12:46:44;;;;;;;3.80;2.00;;;;;;;23.41;29.77;100839.80;130205;1275;114753;-65
2023/05/31 12:49:46;;;;;;;4.30;1.70;;;;;;;23.41;29.83;100836.90;130407;1258;114708;-66
2023/05/31 12:52:55;;;;;;;5.20;2.20;;;;;;;23.40;30.18;100837.16;129976;1257;115147;-66
2023/05/31 12:55:57;;;;;;;6.20;1.80;;;;;;;23.38;30.07;100835.15;129607;1262;128121;-66
2023/05/31 12:59:00;;;;;;;6.00;2.50;;;;;;;23.40;30.46;100833.88;130030;1261;115345;-65
2023/05/31 13:02:02;;;;;;;4.60;2.20;;;;;;;23.40;30.43;100836.21;130294;1269;114758;-64
2023/05/31 13:05:06;;;;;;;3.10;1.80;;;;;;;23.42;30.64;100829.52;130211;1278;114751;-64
2023/05/31 13:08:08;;;;;;;3.90;2.00;;;;;;;23.42;30.28;100827.82;129808;1263;114804;-65
2023/05/31 13:11:10;;;;;;;2.90;2.00;;;;;;;23.40;30.18;100830.21;130155;1275;115130;-66
2023/05/31 13:14:14;;;;;;;5.40;2.30;;;;;;;23.38;30.34;100824.06;130069;1274;114718;-65
2023/05/31 13:17:16;;;;;;;2.50;1.90;;;;;;;23.35;30.06;100820.59;130063;1260;114721;-65
2023/05/31 13:20:18;;;;;;;3.50;1.60;;;;;;;23.37;30.46;100812.64;129458;1256;115284;-64
2023/05/31 13:23:20;;;;;;;4.50;1.90;;;;;;;23.41;30.51;100809.77;130261;1260;114700;-64
2023/05/31 13:26:26;;;;;;;5.70;2.10;;;;;;;23.43;30.46;100807.27;130224;1260;114777;-64
2023/05/31 13:29:28;;;;;;;5.00;2.00;;;;;;;23.46;30.39;100797.34;130085;1254;114742;-65
2023/05/31 13:32:31;;;;;;;3.80;1.90;;;;;;;23.50;30.28;100800.95;130091;1254;114737;-67
2023/05/31 13:35:33;;;;;;;4.50;1.60;;;;;;;23.50;29.98;100794.79;130179;1254;114795;-66
2023/05/31 13:38:35;;;;;;;2.80;1.90;;;;;;;23.48;29.58;100794.28;129921;1256;128302;-65
2023/05/31 13:41:37;;;;;;;3.90;2.20;;;;;;;23.46;29.85;100792.04;130222;1258;115439;-66
2023/05/31 13:44:39;;;;;;;5.00;2.10;;;;;;;23.45;29.74;100786.67;130311;1260;115194;-64
2023/05/31 13:47:42;;;;;;;3.10;2.30;;;;;;;23.43;29.38;100786.16;129960;1254;114870;-64
2023/05/31 13:50:44;;;;;;;2.80;1.60;;;;;;;23.41;29.28;100784.30;130284;1256;115117;-64
2023/05/31 13:53:46;;;;;;;7.10;2.10;;;;;;;23.41;29.49;100777.66;130372;1259;114703;-64
2023/05/31 13:56:48;;;;;;;3.20;1.90;;;;;;;23.41;29.38;100772.52;129903;1256;114858;-65